createdAt,value
2018-01-26T00:01:04.880Z,13.33
2018-01-26T00:03:32.983Z,11.00
2018-01-26T00:06:04.110Z,11.77
2018-01-26T00:08:32.220Z,12.43
2018-01-26T00:11:08.924Z,9.23
2018-01-26T00:13:37.029Z,12.30
2018-01-26T00:16:05.115Z,11.43
2018-01-26T00:18:33.228Z,10.13
2018-01-26T00:21:01.336Z,10.67
2018-01-26T00:23:29.482Z,10.63
2018-01-26T00:25:57.533Z,11.20
2018-01-26T00:28:25.653Z,11.70
2018-01-26T00:30:53.751Z,9.77
2018-01-26T00:33:21.868Z,14.77
2018-01-26T00:35:49.956Z,12.87
2018-01-26T00:38:18.045Z,10.10
2018-01-26T00:40:46.170Z,10.07
2018-01-26T00:43:14.257Z,8.87
2018-01-26T00:45:42.352Z,13.63
2018-01-26T00:48:10.464Z,11.80
2018-01-26T00:50:38.590Z,10.37
2018-01-26T00:53:06.665Z,12.37
2018-01-26T00:55:34.780Z,10.90
2018-01-26T00:58:02.887Z,13.50
2018-01-26T01:00:31.000Z,12.13
2018-01-26T01:02:59.091Z,11.30
2018-01-26T01:05:27.195Z,13.97
2018-01-26T01:07:55.286Z,14.40
2018-01-26T01:10:23.417Z,11.00
2018-01-26T01:12:51.505Z,14.73
2018-01-26T01:15:19.597Z,11.13
2018-01-26T01:17:47.716Z,15.23
2018-01-26T01:20:15.818Z,12.63
2018-01-26T01:22:43.931Z,9.20
2018-01-26T01:25:12.035Z,15.20
2018-01-26T01:27:40.138Z,11.87
2018-01-26T01:30:08.239Z,11.23
2018-01-26T01:32:36.344Z,11.67
2018-01-26T01:35:04.455Z,14.57
2018-01-26T01:37:32.556Z,11.63
2018-01-26T01:40:00.672Z,13.97
2018-01-26T01:42:28.761Z,12.50
2018-01-26T01:44:56.871Z,10.83
2018-01-26T01:47:28.430Z,11.93
2018-01-26T01:49:56.527Z,11.63
2018-01-26T01:52:25.806Z,13.53
2018-01-26T01:54:53.925Z,12.30
2018-01-26T01:57:22.030Z,16.87
2018-01-26T01:59:50.143Z,11.60
2018-01-26T02:02:18.229Z,12.20
2018-01-26T02:04:46.417Z,14.30
2018-01-26T02:07:14.501Z,11.17
2018-01-26T02:09:42.628Z,12.43
2018-01-26T02:12:10.736Z,12.67
2018-01-26T02:14:38.825Z,12.27
2018-01-26T02:17:06.944Z,10.63
2018-01-26T02:19:35.030Z,13.43
2018-01-26T02:22:03.148Z,12.10
2018-01-26T02:24:31.253Z,10.17
2018-01-26T02:26:59.357Z,13.97
2018-01-26T02:29:27.457Z,14.90
2018-01-26T02:31:55.568Z,14.03
2018-01-26T02:34:23.655Z,13.67
2018-01-26T02:36:51.745Z,14.00
2018-01-26T02:39:19.863Z,11.87
2018-01-26T02:41:47.980Z,19.70
2018-01-26T02:44:16.083Z,11.33
2018-01-26T02:46:44.185Z,11.87
2018-01-26T02:49:12.303Z,14.33
2018-01-26T02:51:40.392Z,8.00
2018-01-26T02:54:08.496Z,9.20
2018-01-26T02:56:36.597Z,9.37
2018-01-26T02:59:04.708Z,11.13
2018-01-26T03:01:32.808Z,10.40
2018-01-26T03:04:00.913Z,11.63
2018-01-26T03:06:29.014Z,10.07
2018-01-26T03:08:57.101Z,12.13
2018-01-26T03:11:25.232Z,9.83
2018-01-26T03:13:53.336Z,13.23
2018-01-26T03:16:21.451Z,12.87
2018-01-26T03:18:49.547Z,8.13
2018-01-26T03:21:17.633Z,9.93
2018-01-26T03:23:45.733Z,12.63
2018-01-26T03:26:13.825Z,11.67
2018-01-26T03:28:41.930Z,15.47
2018-01-26T03:31:10.015Z,9.27
2018-01-26T03:33:38.113Z,13.10
2018-01-26T03:36:06.231Z,10.57
2018-01-26T03:38:34.344Z,11.43
2018-01-26T03:41:02.452Z,10.03
2018-01-26T03:43:30.568Z,12.83
2018-01-26T03:45:58.675Z,9.63
2018-01-26T03:48:26.766Z,12.30
2018-01-26T03:50:54.871Z,12.63
2018-01-26T03:53:22.966Z,12.70
2018-01-26T03:55:51.067Z,13.70
2018-01-26T03:58:19.153Z,11.47
2018-01-26T04:00:47.268Z,12.90
2018-01-26T04:03:31.697Z,11.30
2018-01-26T04:05:59.799Z,10.10
2018-01-26T04:08:27.901Z,14.60
2018-01-26T04:10:56.009Z,14.23
2018-01-26T04:13:28.220Z,14.50
2018-01-26T04:15:56.325Z,15.03
2018-01-26T04:18:24.431Z,12.43
2018-01-26T04:20:52.535Z,13.17
2018-01-26T04:23:20.642Z,11.23
2018-01-26T04:25:48.741Z,12.70
2018-01-26T04:28:16.834Z,12.27
2018-01-26T04:30:44.943Z,14.53
2018-01-26T04:33:13.048Z,14.20
2018-01-26T04:35:41.138Z,14.20
2018-01-26T04:38:09.242Z,12.47
2018-01-26T04:40:37.333Z,13.47
2018-01-26T04:43:05.435Z,11.07
2018-01-26T04:45:33.525Z,14.23
2018-01-26T04:48:01.652Z,11.30
2018-01-26T04:50:29.752Z,14.13
2018-01-26T04:52:57.845Z,13.80
2018-01-26T04:55:25.945Z,15.97
2018-01-26T04:57:54.072Z,13.23
2018-01-26T05:00:22.187Z,15.03
2018-01-26T05:02:50.284Z,15.90
2018-01-26T05:05:18.387Z,13.93
2018-01-26T05:07:50.383Z,12.13
2018-01-26T05:10:18.491Z,12.80
2018-01-26T05:12:46.609Z,14.57
2018-01-26T05:15:14.716Z,12.37
2018-01-26T05:17:42.829Z,14.73
2018-01-26T05:20:10.929Z,14.60
2018-01-26T05:22:39.044Z,12.87
2018-01-26T05:25:07.133Z,13.63
2018-01-26T05:27:35.249Z,15.47
2018-01-26T05:30:03.338Z,12.70
2018-01-26T05:32:31.456Z,16.30
2018-01-26T05:35:04.757Z,12.90
2018-01-26T05:40:28.342Z,15.17
2018-01-26T05:42:56.446Z,16.87
2018-01-26T05:45:24.541Z,13.17
2018-01-26T05:47:52.648Z,15.27
2018-01-26T05:50:20.746Z,15.63
2018-01-26T05:52:48.855Z,16.63
2018-01-26T05:55:16.949Z,13.07
2018-01-26T05:57:45.065Z,15.07
2018-01-26T06:00:13.170Z,13.73
2018-01-26T06:02:41.361Z,12.87
2018-01-26T06:05:09.721Z,13.87
2018-01-26T06:07:37.938Z,14.23
2018-01-26T06:10:06.126Z,15.60
2018-01-26T06:12:34.288Z,16.23
2018-01-26T06:15:02.466Z,15.13
2018-01-26T06:17:30.675Z,15.60
2018-01-26T06:19:58.808Z,14.60
2018-01-26T06:22:26.954Z,16.40
2018-01-26T06:25:00.750Z,17.57
2018-01-26T06:27:28.912Z,19.73
2018-01-26T06:29:57.020Z,16.20
2018-01-26T06:32:25.107Z,17.97
2018-01-26T06:34:55.177Z,15.50
2018-01-26T06:37:23.280Z,18.47
2018-01-26T06:39:51.366Z,13.67
2018-01-26T06:45:12.579Z,14.03
2018-01-26T06:47:40.696Z,17.17
2018-01-26T06:50:08.808Z,15.63
2018-01-26T06:52:36.942Z,16.87
2018-01-26T06:55:05.057Z,13.27
2018-01-26T06:57:33.147Z,16.20
2018-01-26T07:00:01.313Z,12.57
2018-01-26T07:02:40.086Z,19.67
2018-01-26T07:05:18.781Z,16.70
2018-01-26T07:07:50.723Z,18.57
2018-01-26T07:10:18.845Z,15.00
2018-01-26T07:12:47.868Z,14.53
2018-01-26T07:15:15.976Z,15.00
2018-01-26T07:17:44.078Z,17.77
2018-01-26T07:20:12.187Z,18.33
2018-01-26T07:22:40.282Z,14.70
2018-01-26T07:25:08.398Z,16.67
2018-01-26T07:27:36.501Z,17.73
2018-01-26T07:30:04.601Z,19.07
2018-01-26T07:32:32.697Z,22.60
2018-01-26T07:35:00.808Z,16.97
2018-01-26T07:37:28.942Z,18.47
2018-01-26T07:39:57.990Z,14.50
2018-01-26T07:42:26.112Z,21.10
2018-01-26T07:44:55.151Z,20.77
2018-01-26T07:47:23.245Z,20.13
2018-01-26T07:49:51.382Z,19.90
2018-01-26T07:52:19.489Z,20.87
2018-01-26T07:54:47.585Z,19.83
2018-01-26T07:57:15.678Z,19.80
2018-01-26T07:59:43.782Z,19.67
2018-01-26T08:02:11.893Z,20.47
2018-01-26T08:04:39.993Z,23.20
2018-01-26T08:07:10.011Z,17.23
2018-01-26T08:09:38.105Z,17.90
2018-01-26T08:12:06.227Z,23.03
2018-01-26T08:14:34.327Z,15.73
2018-01-26T08:17:03.297Z,22.57
2018-01-26T08:19:31.412Z,16.90
2018-01-26T08:21:59.503Z,20.20
2018-01-26T08:24:27.624Z,21.20
2018-01-26T08:26:55.718Z,20.00
2018-01-26T08:29:23.844Z,17.77
2018-01-26T08:31:51.950Z,16.87
2018-01-26T08:34:20.056Z,18.20
2018-01-26T08:36:48.176Z,16.27
2018-01-26T08:39:16.283Z,22.53
2018-01-26T08:41:44.403Z,20.33
2018-01-26T08:44:12.505Z,21.53
2018-01-26T08:46:40.611Z,20.17
2018-01-26T08:49:08.728Z,22.07
2018-01-26T08:51:36.832Z,19.83
2018-01-26T08:54:05.926Z,22.20
2018-01-26T08:56:36.008Z,18.27
2018-01-26T08:59:04.124Z,14.10
2018-01-26T09:01:34.179Z,17.70
2018-01-26T09:04:02.282Z,15.07
2018-01-26T09:06:30.401Z,19.20
2018-01-26T09:08:58.500Z,18.57
2018-01-26T09:11:26.614Z,15.60
2018-01-26T09:14:08.817Z,18.93
2018-01-26T09:16:36.918Z,15.60
2018-01-26T09:19:22.314Z,16.17
2018-01-26T09:21:55.419Z,16.57
2018-01-26T09:24:36.457Z,14.20
2018-01-26T09:27:04.580Z,16.57
2018-01-26T09:29:32.673Z,20.47
2018-01-26T09:32:12.471Z,16.93
2018-01-26T09:34:40.599Z,17.47
2018-01-26T09:37:13.838Z,21.03
2018-01-26T09:39:41.933Z,24.17
2018-01-26T09:42:10.035Z,21.73
2018-01-26T09:47:37.354Z,17.83
2018-01-26T09:50:05.464Z,17.57
2018-01-26T09:52:33.589Z,20.47
2018-01-26T09:55:01.698Z,19.57
2018-01-26T09:57:29.811Z,17.20
2018-01-26T10:00:12.041Z,20.47
2018-01-26T10:02:40.170Z,18.00
2018-01-26T10:05:08.289Z,22.83
2018-01-26T10:07:36.405Z,19.90
2018-01-26T10:10:04.508Z,18.57
2018-01-26T10:12:32.614Z,16.73
2018-01-26T10:15:00.736Z,20.40
2018-01-26T10:17:28.823Z,19.50
2018-01-26T10:19:56.942Z,16.37
2018-01-26T10:22:25.043Z,22.70
2018-01-26T10:24:53.189Z,21.80
2018-01-26T10:27:21.308Z,19.17
2018-01-26T10:29:49.422Z,18.83
2018-01-26T10:32:17.527Z,22.40
2018-01-26T10:34:45.614Z,23.00
2018-01-26T10:37:13.726Z,18.83
2018-01-26T10:39:41.840Z,19.57
2018-01-26T10:42:09.941Z,23.57
2018-01-26T10:44:38.062Z,22.90
2018-01-26T10:47:06.157Z,25.03
2018-01-26T10:49:34.287Z,19.60
2018-01-26T10:52:02.412Z,26.90
2018-01-26T10:54:30.526Z,22.70
2018-01-26T10:56:58.641Z,25.73
2018-01-26T10:59:26.789Z,23.13
2018-01-26T11:01:54.891Z,21.13
2018-01-26T11:04:23.016Z,18.00
2018-01-26T11:06:51.189Z,27.30
2018-01-26T11:09:19.252Z,21.80
2018-01-26T11:11:47.361Z,25.60
2018-01-26T11:14:15.457Z,23.37
2018-01-26T11:16:43.566Z,21.10
2018-01-26T11:19:11.679Z,22.20
2018-01-26T11:21:39.769Z,29.90
2018-01-26T11:24:07.905Z,19.73
2018-01-26T11:26:36.010Z,22.10
2018-01-26T11:29:04.122Z,22.07
2018-01-26T11:31:32.249Z,22.50
2018-01-26T11:34:00.372Z,18.23
2018-01-26T11:36:28.489Z,25.60
2018-01-26T11:38:56.590Z,24.73
2018-01-26T11:41:24.704Z,23.47
2018-01-26T11:43:52.814Z,31.17
2018-01-26T11:46:20.944Z,22.37
2018-01-26T11:48:49.050Z,23.30
2018-01-26T11:51:17.168Z,20.83
2018-01-26T11:53:45.262Z,23.53
2018-01-26T11:56:13.374Z,22.57
2018-01-26T11:58:41.485Z,25.20
2018-01-26T12:01:09.604Z,18.33
2018-01-26T12:03:37.715Z,23.47
2018-01-26T12:06:05.838Z,23.53
2018-01-26T12:08:33.957Z,19.53
2018-01-26T12:11:02.072Z,26.53
2018-01-26T12:13:30.196Z,28.63
2018-01-26T12:15:58.314Z,22.67
2018-01-26T12:18:26.460Z,24.57
2018-01-26T12:20:54.561Z,26.63
2018-01-26T12:23:23.585Z,27.20
2018-01-26T12:25:51.708Z,25.07
2018-01-26T12:28:21.784Z,25.60
2018-01-26T12:30:49.919Z,26.13
2018-01-26T12:33:22.136Z,24.53
2018-01-26T12:35:50.272Z,30.53
2018-01-26T12:38:18.395Z,27.90
2018-01-26T12:40:46.512Z,21.80
2018-01-26T12:43:14.647Z,25.33
2018-01-26T12:45:42.750Z,26.23
2018-01-26T12:48:21.153Z,23.50
2018-01-26T12:50:49.282Z,27.43
2018-01-26T12:53:17.400Z,26.43
2018-01-26T12:55:45.521Z,27.07
2018-01-26T12:58:13.622Z,26.90
2018-01-26T13:00:41.751Z,28.70
2018-01-26T13:03:09.859Z,27.87
2018-01-26T13:05:38.926Z,27.37
2018-01-26T13:08:07.056Z,25.07
2018-01-26T13:10:35.160Z,26.60
2018-01-26T13:13:03.265Z,26.67
2018-01-26T13:15:31.389Z,23.43
2018-01-26T13:17:59.514Z,24.03
2018-01-26T13:20:27.635Z,27.83
2018-01-26T13:22:58.921Z,24.33
2018-01-26T13:25:27.026Z,26.67
2018-01-26T13:28:05.762Z,29.00
2018-01-26T13:30:33.884Z,26.27
2018-01-26T13:33:02.003Z,27.73
2018-01-26T13:35:34.114Z,29.13
2018-01-26T13:38:02.244Z,28.80
2018-01-26T13:40:37.454Z,29.77
2018-01-26T13:43:08.569Z,30.97
2018-01-26T13:45:36.730Z,32.73
2018-01-26T13:48:04.878Z,28.27
2018-01-26T13:50:50.175Z,26.47
2018-01-26T13:53:18.295Z,22.60
2018-01-26T13:55:46.414Z,23.40
2018-01-26T13:58:31.414Z,22.40
2018-01-26T14:00:59.501Z,22.00
2018-01-26T14:03:27.618Z,23.20
2018-01-26T14:05:55.732Z,22.07
2018-01-26T14:08:23.866Z,25.20
2018-01-26T14:10:55.343Z,24.17
2018-01-26T14:13:23.467Z,22.97
2018-01-26T14:15:57.504Z,26.80
2018-01-26T14:18:26.601Z,22.83
2018-01-26T14:20:54.739Z,27.00
2018-01-26T14:23:28.466Z,24.00
2018-01-26T14:25:56.602Z,23.30
2018-01-26T14:28:24.699Z,25.23
2018-01-26T14:30:52.841Z,28.90
2018-01-26T14:33:20.945Z,27.67
2018-01-26T14:36:13.369Z,31.17
2018-01-26T14:38:42.448Z,25.67
2018-01-26T14:41:17.439Z,34.93
2018-01-26T14:43:51.422Z,23.63
2018-01-26T14:46:19.578Z,27.97
2018-01-26T14:48:48.736Z,23.83
2018-01-26T14:51:17.207Z,24.60
2018-01-26T14:53:45.445Z,32.03
2018-01-26T14:56:15.638Z,30.57
2018-01-26T14:58:45.088Z,25.63
2018-01-26T15:01:14.128Z,25.53
2018-01-26T15:03:42.233Z,27.93
2018-01-26T15:06:17.420Z,22.30
2018-01-26T15:08:45.529Z,27.50
2018-01-26T15:11:13.841Z,28.93
2018-01-26T15:13:43.939Z,26.13
2018-01-26T15:16:12.052Z,21.87
2018-01-26T15:18:41.188Z,24.67
2018-01-26T15:21:09.334Z,25.00
2018-01-26T15:23:37.523Z,26.13
2018-01-26T15:26:10.434Z,27.30
2018-01-26T15:28:38.658Z,26.47
2018-01-26T15:31:08.698Z,30.07
2018-01-26T15:33:40.475Z,27.40
2018-01-26T15:36:08.586Z,27.90
2018-01-26T15:38:41.005Z,31.90
2018-01-26T15:41:16.341Z,24.73
2018-01-26T15:43:44.481Z,24.53
2018-01-26T15:46:18.686Z,27.07
2018-01-26T15:48:46.820Z,25.40
2018-01-26T15:51:15.900Z,22.17
2018-01-26T15:53:44.029Z,24.53
2018-01-26T15:56:14.098Z,26.90
2018-01-26T15:58:42.207Z,23.40
2018-01-26T16:01:14.029Z,22.50
2018-01-26T16:03:42.138Z,27.07
2018-01-26T16:06:13.456Z,23.20
2018-01-26T16:08:41.559Z,22.53
2018-01-26T16:11:11.652Z,21.63
2018-01-26T16:13:39.765Z,22.00
2018-01-26T16:16:14.099Z,21.77
2018-01-26T16:18:42.221Z,25.70
2018-01-26T16:21:10.335Z,26.50
2018-01-26T16:23:41.921Z,18.13
2018-01-26T16:26:10.035Z,22.27
2018-01-26T16:28:49.492Z,22.53
2018-01-26T16:31:18.534Z,21.10
2018-01-26T16:34:00.515Z,16.90
2018-01-26T16:36:28.619Z,23.93
2018-01-26T16:38:56.747Z,31.33
2018-01-26T16:41:25.763Z,18.40
2018-01-26T16:43:55.778Z,21.00
2018-01-26T16:46:23.900Z,24.73
2018-01-26T16:48:52.003Z,20.90
2018-01-26T16:51:23.693Z,20.57
2018-01-26T16:53:58.387Z,20.63
2018-01-26T16:56:28.454Z,26.97
2018-01-26T16:58:56.576Z,23.90
2018-01-26T17:01:24.700Z,19.87
2018-01-26T17:03:52.819Z,24.70
2018-01-26T17:06:21.844Z,24.33
2018-01-26T17:08:49.964Z,23.30
2018-01-26T17:11:21.872Z,23.40
2018-01-26T17:13:51.932Z,22.70
2018-01-26T17:16:23.661Z,22.67
2018-01-26T17:18:53.783Z,19.03
2018-01-26T17:21:21.878Z,20.40
2018-01-26T17:23:49.991Z,22.13
2018-01-26T17:26:28.708Z,27.03
2018-01-26T17:29:00.811Z,18.90
2018-01-26T17:31:28.913Z,21.10
2018-01-26T17:33:57.991Z,18.57
2018-01-26T17:36:30.863Z,23.63
2018-01-26T17:38:59.008Z,27.50
2018-01-26T17:41:27.087Z,25.03
2018-01-26T17:43:55.208Z,27.93
2018-01-26T17:46:23.297Z,28.50
2018-01-26T17:48:51.410Z,28.63
2018-01-26T17:51:19.506Z,23.07
2018-01-26T17:53:47.607Z,27.07
2018-01-26T17:56:15.742Z,26.47
2018-01-26T17:58:43.860Z,31.37
2018-01-26T18:01:11.964Z,24.13
2018-01-26T18:03:40.068Z,25.87
2018-01-26T18:06:08.188Z,29.00
2018-01-26T18:08:36.295Z,22.80
2018-01-26T18:11:05.407Z,22.93
2018-01-26T18:13:33.524Z,23.50
2018-01-26T18:16:02.572Z,25.53
2018-01-26T18:18:30.767Z,44.50
2018-01-26T18:20:58.963Z,47.80
2018-01-26T18:23:27.092Z,44.63
2018-01-26T18:28:48.761Z,32.07
2018-01-26T18:31:21.304Z,23.83
2018-01-26T18:33:49.419Z,28.17
2018-01-26T18:36:30.340Z,29.70
2018-01-26T18:38:58.456Z,27.20
2018-01-26T18:41:26.573Z,27.70
2018-01-26T18:44:14.028Z,28.23
2018-01-26T18:46:42.135Z,26.60
2018-01-26T18:49:10.251Z,27.17
2018-01-26T18:51:42.116Z,26.17
2018-01-26T18:54:10.256Z,27.43
2018-01-26T18:56:45.189Z,26.47
2018-01-26T18:59:13.308Z,28.43
2018-01-26T19:01:41.738Z,32.53
2018-01-26T19:04:09.851Z,28.10
2018-01-26T19:06:37.975Z,40.07
2018-01-26T19:09:08.082Z,33.60
2018-01-26T19:11:36.201Z,27.97
2018-01-26T19:14:04.336Z,28.07
2018-01-26T19:16:36.459Z,28.17
2018-01-26T19:19:04.631Z,29.67
2018-01-26T19:21:32.752Z,27.03
2018-01-26T19:24:06.838Z,27.50
2018-01-26T19:26:34.940Z,27.13
2018-01-26T19:29:04.017Z,28.77
2018-01-26T19:31:34.141Z,32.13
2018-01-26T19:34:02.260Z,29.37
2018-01-26T19:36:44.670Z,31.50
2018-01-26T19:39:12.778Z,28.50
2018-01-26T19:41:40.893Z,27.23
2018-01-26T19:44:09.939Z,26.47
2018-01-26T19:46:38.045Z,25.77
2018-01-26T19:49:07.075Z,31.37
2018-01-26T19:51:35.199Z,26.90
2018-01-26T19:54:06.935Z,27.37
2018-01-26T19:56:35.021Z,31.07
2018-01-26T19:59:04.107Z,27.87
2018-01-26T20:01:32.219Z,30.47
2018-01-26T20:04:06.300Z,36.77
2018-01-26T20:06:51.870Z,33.67
2018-01-26T20:09:25.900Z,32.90
2018-01-26T20:11:59.706Z,35.30
2018-01-26T20:14:27.837Z,38.70
2018-01-26T20:16:55.943Z,36.90
2018-01-26T20:19:24.046Z,35.00
2018-01-26T20:21:53.090Z,38.90
2018-01-26T20:24:26.799Z,38.37
2018-01-26T20:26:54.924Z,36.67
2018-01-26T20:29:29.770Z,34.47
2018-01-26T20:31:57.889Z,35.40
2018-01-26T20:34:25.999Z,37.57
2018-01-26T20:36:56.057Z,40.63
2018-01-26T20:39:24.170Z,35.37
2018-01-26T20:41:55.861Z,33.17
2018-01-26T20:44:23.988Z,34.13
2018-01-26T20:46:52.096Z,33.17
2018-01-26T20:49:23.270Z,33.67
2018-01-26T20:51:51.373Z,33.03
2018-01-26T20:54:19.490Z,33.67
2018-01-26T20:56:48.540Z,29.00
2018-01-26T20:59:16.673Z,36.63
2018-01-26T21:02:03.674Z,34.50
2018-01-26T21:04:42.898Z,33.07
2018-01-26T21:07:36.222Z,30.57
2018-01-26T21:10:04.340Z,34.43
2018-01-26T21:12:36.322Z,29.07
2018-01-26T21:15:04.439Z,32.73
2018-01-26T21:17:32.567Z,30.57
2018-01-26T21:20:00.671Z,27.70
2018-01-26T21:22:28.783Z,25.50
2018-01-26T21:27:52.312Z,24.97
2018-01-26T21:30:20.414Z,29.17
2018-01-26T21:32:50.525Z,26.80
2018-01-26T21:35:18.641Z,28.17
2018-01-26T21:37:57.983Z,32.50
2018-01-26T21:40:26.999Z,27.43
2018-01-26T21:43:04.781Z,28.27
2018-01-26T21:45:33.782Z,29.17
2018-01-26T21:48:01.894Z,30.70
2018-01-26T21:50:43.422Z,28.57
2018-01-26T21:53:13.462Z,31.53
2018-01-26T21:55:41.563Z,27.10
2018-01-26T21:58:09.657Z,28.53
2018-01-26T22:00:37.772Z,33.93
2018-01-26T22:03:05.879Z,25.77
2018-01-26T22:05:33.991Z,24.57
2018-01-26T22:10:54.988Z,30.17
2018-01-26T22:13:23.099Z,28.57
2018-01-26T22:15:51.215Z,30.07
2018-01-26T22:18:19.313Z,23.27
2018-01-26T22:20:47.421Z,28.87
2018-01-26T22:23:15.534Z,26.17
2018-01-26T22:25:43.641Z,29.20
2018-01-26T22:28:15.686Z,28.43
2018-01-26T22:30:43.778Z,27.57
2018-01-26T22:33:29.608Z,26.67
2018-01-26T22:35:57.715Z,25.30
2018-01-26T22:38:27.807Z,26.83
2018-01-26T22:40:55.927Z,27.80
2018-01-26T22:46:17.315Z,24.63
2018-01-26T22:48:50.725Z,25.93
2018-01-26T22:51:18.857Z,25.73
2018-01-26T22:53:47.978Z,24.67
2018-01-26T22:56:16.091Z,28.10
2018-01-26T22:58:44.198Z,27.13
2018-01-26T23:01:15.990Z,29.10
2018-01-26T23:03:44.090Z,27.67
2018-01-26T23:06:12.213Z,27.50
2018-01-26T23:08:40.374Z,27.17
2018-01-26T23:11:10.414Z,29.77
2018-01-26T23:13:38.532Z,27.13
2018-01-26T23:16:06.657Z,26.00
2018-01-26T23:18:34.754Z,25.47
2018-01-26T23:21:02.857Z,30.47
2018-01-26T23:23:30.985Z,27.60
2018-01-26T23:26:04.487Z,24.13
2018-01-26T23:28:32.597Z,25.07
2018-01-26T23:34:00.094Z,31.30
2018-01-26T23:36:34.892Z,25.87
2018-01-26T23:39:03.010Z,25.33
2018-01-26T23:41:31.146Z,27.20
2018-01-26T23:44:14.024Z,25.60
2018-01-26T23:46:42.130Z,26.77
2018-01-26T23:49:14.773Z,29.00
2018-01-26T23:51:42.892Z,27.33
2018-01-26T23:54:10.985Z,26.63
2018-01-26T23:56:51.497Z,27.20
2018-01-26T23:59:19.607Z,29.27
